sensor_id;sensor_type;location;lat;lon;timestamp;P1;durP1;ratioP1;P2;durP2;ratioP2
19816;SDS011;68323;49.394;8.434;2023-10-09T00:02:10;19.83;;;8.20;;
19816;SDS011;68323;49.394;8.434;2023-10-09T00:04:41;17.10;;;7.20;;
19816;SDS011;68323;49.394;8.434;2023-10-09T00:07:10;16.57;;;7.37;;
19816;SDS011;68323;49.394;8.434;2023-10-09T00:09:42;15.83;;;7.57;;
19816;SDS011;68323;49.394;8.434;2023-10-09T00:12:16;23.57;;;7.80;;
19816;SDS011;68323;49.394;8.434;2023-10-09T00:14:47;19.83;;;7.20;;
19816;SDS011;68323;49.394;8.434;2023-10-09T00:17:18;19.83;;;7.70;;
19816;SDS011;68323;49.394;8.434;2023-10-09T00:19:45;13.13;;;7.53;;
19816;SDS011;68323;49.394;8.434;2023-10-09T00:22:12;19.63;;;8.10;;
19816;SDS011;68323;49.394;8.434;2023-10-09T00:24:54;16.80;;;7.43;;
19816;SDS011;68323;49.394;8.434;2023-10-09T00:27:40;15.83;;;8.20;;
19816;SDS011;68323;49.394;8.434;2023-10-09T00:30:07;19.90;;;8.20;;
19816;SDS011;68323;49.394;8.434;2023-10-09T00:32:34;17.63;;;7.47;;
19816;SDS011;68323;49.394;8.434;2023-10-09T00:35:02;18.03;;;7.77;;
19816;SDS011;68323;49.394;8.434;2023-10-09T00:37:48;18.67;;;7.43;;
19816;SDS011;68323;49.394;8.434;2023-10-09T00:40:16;20.50;;;7.30;;
19816;SDS011;68323;49.394;8.434;2023-10-09T00:42:46;20.60;;;7.33;;
19816;SDS011;68323;49.394;8.434;2023-10-09T00:45:13;20.43;;;7.17;;
19816;SDS011;68323;49.394;8.434;2023-10-09T00:47:49;17.53;;;7.07;;
19816;SDS011;68323;49.394;8.434;2023-10-09T00:50:16;22.37;;;7.33;;
19816;SDS011;68323;49.394;8.434;2023-10-09T00:52:46;19.20;;;7.13;;
19816;SDS011;68323;49.394;8.434;2023-10-09T00:55:27;18.53;;;7.53;;
19816;SDS011;68323;49.394;8.434;2023-10-09T00:58:08;19.03;;;7.10;;
19816;SDS011;68323;49.394;8.434;2023-10-09T01:00:39;16.80;;;7.20;;
19816;SDS011;68323;49.394;8.434;2023-10-09T01:03:08;21.33;;;7.27;;
19816;SDS011;68323;49.394;8.434;2023-10-09T01:05:45;20.50;;;6.73;;
19816;SDS011;68323;49.394;8.434;2023-10-09T01:08:28;18.23;;;6.83;;
19816;SDS011;68323;49.394;8.434;2023-10-09T01:11:06;18.50;;;7.17;;
19816;SDS011;68323;49.394;8.434;2023-10-09T01:13:39;20.17;;;7.10;;
19816;SDS011;68323;49.394;8.434;2023-10-09T01:16:15;19.33;;;6.60;;
19816;SDS011;68323;49.394;8.434;2023-10-09T01:18:42;24.87;;;7.60;;
19816;SDS011;68323;49.394;8.434;2023-10-09T01:21:09;21.53;;;7.87;;
19816;SDS011;68323;49.394;8.434;2023-10-09T01:23:39;18.27;;;7.07;;
19816;SDS011;68323;49.394;8.434;2023-10-09T01:26:12;19.20;;;6.87;;
19816;SDS011;68323;49.394;8.434;2023-10-09T01:28:38;21.70;;;7.17;;
19816;SDS011;68323;49.394;8.434;2023-10-09T01:31:03;19.47;;;7.17;;
19816;SDS011;68323;49.394;8.434;2023-10-09T01:33:31;21.10;;;6.97;;
19816;SDS011;68323;49.394;8.434;2023-10-09T01:36:00;23.20;;;7.10;;
19816;SDS011;68323;49.394;8.434;2023-10-09T01:38:26;14.53;;;6.30;;
19816;SDS011;68323;49.394;8.434;2023-10-09T01:41:06;18.00;;;7.53;;
19816;SDS011;68323;49.394;8.434;2023-10-09T01:43:40;16.37;;;6.87;;
19816;SDS011;68323;49.394;8.434;2023-10-09T01:46:10;22.50;;;7.70;;
19816;SDS011;68323;49.394;8.434;2023-10-09T01:48:36;19.17;;;6.40;;
19816;SDS011;68323;49.394;8.434;2023-10-09T01:51:08;20.00;;;6.93;;
19816;SDS011;68323;49.394;8.434;2023-10-09T01:53:42;18.63;;;6.90;;
19816;SDS011;68323;49.394;8.434;2023-10-09T01:56:09;25.87;;;7.23;;
19816;SDS011;68323;49.394;8.434;2023-10-09T01:58:40;18.37;;;7.17;;
19816;SDS011;68323;49.394;8.434;2023-10-09T02:01:05;20.87;;;7.17;;
19816;SDS011;68323;49.394;8.434;2023-10-09T02:03:31;19.60;;;6.63;;
19816;SDS011;68323;49.394;8.434;2023-10-09T02:06:02;25.07;;;7.33;;
19816;SDS011;68323;49.394;8.434;2023-10-09T02:08:29;25.57;;;7.73;;
19816;SDS011;68323;49.394;8.434;2023-10-09T02:10:55;15.67;;;7.30;;
19816;SDS011;68323;49.394;8.434;2023-10-09T02:13:21;20.07;;;7.00;;
19816;SDS011;68323;49.394;8.434;2023-10-09T02:16:00;22.47;;;7.23;;
19816;SDS011;68323;49.394;8.434;2023-10-09T02:18:38;17.40;;;6.63;;
19816;SDS011;68323;49.394;8.434;2023-10-09T02:21:21;24.10;;;7.37;;
19816;SDS011;68323;49.394;8.434;2023-10-09T02:24:00;24.20;;;7.03;;
19816;SDS011;68323;49.394;8.434;2023-10-09T02:26:34;18.53;;;6.70;;
19816;SDS011;68323;49.394;8.434;2023-10-09T02:29:20;23.93;;;7.03;;
19816;SDS011;68323;49.394;8.434;2023-10-09T02:31:49;17.63;;;6.37;;
19816;SDS011;68323;49.394;8.434;2023-10-09T02:34:20;26.43;;;6.73;;
19816;SDS011;68323;49.394;8.434;2023-10-09T02:36:51;22.97;;;7.07;;
19816;SDS011;68323;49.394;8.434;2023-10-09T02:39:25;16.23;;;6.23;;
19816;SDS011;68323;49.394;8.434;2023-10-09T02:41:54;21.60;;;6.90;;
19816;SDS011;68323;49.394;8.434;2023-10-09T02:44:41;23.97;;;6.83;;
19816;SDS011;68323;49.394;8.434;2023-10-09T02:47:15;17.00;;;7.17;;
19816;SDS011;68323;49.394;8.434;2023-10-09T02:49:54;17.23;;;6.83;;
19816;SDS011;68323;49.394;8.434;2023-10-09T02:52:25;21.13;;;7.27;;
19816;SDS011;68323;49.394;8.434;2023-10-09T02:54:57;25.10;;;7.00;;
19816;SDS011;68323;49.394;8.434;2023-10-09T02:57:31;20.67;;;7.03;;
19816;SDS011;68323;49.394;8.434;2023-10-09T03:00:03;17.13;;;6.77;;
19816;SDS011;68323;49.394;8.434;2023-10-09T03:02:34;19.03;;;6.40;;
19816;SDS011;68323;49.394;8.434;2023-10-09T03:05:01;21.33;;;7.10;;
19816;SDS011;68323;49.394;8.434;2023-10-09T03:07:28;18.87;;;6.33;;
19816;SDS011;68323;49.394;8.434;2023-10-09T03:09:54;20.37;;;7.17;;
19816;SDS011;68323;49.394;8.434;2023-10-09T03:12:20;21.10;;;6.13;;
19816;SDS011;68323;49.394;8.434;2023-10-09T03:14:51;16.00;;;6.30;;
19816;SDS011;68323;49.394;8.434;2023-10-09T03:17:17;20.77;;;6.13;;
19816;SDS011;68323;49.394;8.434;2023-10-09T03:19:43;19.67;;;6.30;;
19816;SDS011;68323;49.394;8.434;2023-10-09T03:22:08;21.20;;;7.07;;
19816;SDS011;68323;49.394;8.434;2023-10-09T03:24:35;17.03;;;6.70;;
19816;SDS011;68323;49.394;8.434;2023-10-09T03:27:01;17.43;;;6.50;;
19816;SDS011;68323;49.394;8.434;2023-10-09T03:29:30;16.07;;;6.17;;
19816;SDS011;68323;49.394;8.434;2023-10-09T03:31:55;20.00;;;6.17;;
19816;SDS011;68323;49.394;8.434;2023-10-09T03:34:21;18.20;;;6.57;;
19816;SDS011;68323;49.394;8.434;2023-10-09T03:36:48;19.53;;;7.37;;
19816;SDS011;68323;49.394;8.434;2023-10-09T03:39:24;18.70;;;7.27;;
19816;SDS011;68323;49.394;8.434;2023-10-09T03:42:03;21.00;;;6.57;;
19816;SDS011;68323;49.394;8.434;2023-10-09T03:44:30;17.57;;;6.20;;
19816;SDS011;68323;49.394;8.434;2023-10-09T03:46:58;19.77;;;6.43;;
19816;SDS011;68323;49.394;8.434;2023-10-09T03:49:24;17.23;;;6.57;;
19816;SDS011;68323;49.394;8.434;2023-10-09T03:51:51;22.50;;;7.33;;
19816;SDS011;68323;49.394;8.434;2023-10-09T03:54:17;21.33;;;7.40;;
19816;SDS011;68323;49.394;8.434;2023-10-09T03:56:47;18.10;;;7.73;;
19816;SDS011;68323;49.394;8.434;2023-10-09T03:59:15;14.40;;;6.53;;
19816;SDS011;68323;49.394;8.434;2023-10-09T04:01:47;26.47;;;7.30;;
19816;SDS011;68323;49.394;8.434;2023-10-09T04:04:18;19.17;;;7.80;;
19816;SDS011;68323;49.394;8.434;2023-10-09T04:06:47;23.07;;;7.57;;
19816;SDS011;68323;49.394;8.434;2023-10-09T04:09:13;23.77;;;7.43;;
19816;SDS011;68323;49.394;8.434;2023-10-09T04:11:45;20.63;;;7.53;;
19816;SDS011;68323;49.394;8.434;2023-10-09T04:14:14;19.10;;;7.93;;
19816;SDS011;68323;49.394;8.434;2023-10-09T04:17:12;18.63;;;7.20;;
19816;SDS011;68323;49.394;8.434;2023-10-09T04:19:49;24.53;;;7.23;;
19816;SDS011;68323;49.394;8.434;2023-10-09T04:22:34;20.10;;;7.43;;
19816;SDS011;68323;49.394;8.434;2023-10-09T04:25:04;17.87;;;6.90;;
19816;SDS011;68323;49.394;8.434;2023-10-09T04:27:39;18.63;;;7.13;;
19816;SDS011;68323;49.394;8.434;2023-10-09T04:30:05;21.00;;;7.23;;
19816;SDS011;68323;49.394;8.434;2023-10-09T04:32:32;17.07;;;7.37;;
19816;SDS011;68323;49.394;8.434;2023-10-09T04:34:59;27.67;;;7.63;;
19816;SDS011;68323;49.394;8.434;2023-10-09T04:37:44;23.90;;;7.67;;
19816;SDS011;68323;49.394;8.434;2023-10-09T04:40:17;21.63;;;7.50;;
19816;SDS011;68323;49.394;8.434;2023-10-09T04:43:01;24.10;;;7.33;;
19816;SDS011;68323;49.394;8.434;2023-10-09T04:45:31;21.97;;;7.30;;
19816;SDS011;68323;49.394;8.434;2023-10-09T04:48:26;19.00;;;6.60;;
19816;SDS011;68323;49.394;8.434;2023-10-09T04:51:01;20.20;;;6.90;;
19816;SDS011;68323;49.394;8.434;2023-10-09T04:53:45;19.40;;;7.00;;
19816;SDS011;68323;49.394;8.434;2023-10-09T04:56:13;20.13;;;6.83;;
19816;SDS011;68323;49.394;8.434;2023-10-09T04:58:41;20.97;;;7.27;;
19816;SDS011;68323;49.394;8.434;2023-10-09T05:01:07;17.90;;;6.57;;
19816;SDS011;68323;49.394;8.434;2023-10-09T05:03:40;20.20;;;7.47;;
19816;SDS011;68323;49.394;8.434;2023-10-09T05:06:06;22.23;;;7.00;;
19816;SDS011;68323;49.394;8.434;2023-10-09T05:08:57;26.90;;;6.77;;
19816;SDS011;68323;49.394;8.434;2023-10-09T05:11:33;20.07;;;6.83;;
19816;SDS011;68323;49.394;8.434;2023-10-09T05:14:18;21.53;;;7.50;;
19816;SDS011;68323;49.394;8.434;2023-10-09T05:17:03;21.30;;;6.83;;
19816;SDS011;68323;49.394;8.434;2023-10-09T05:19:29;19.27;;;7.30;;
19816;SDS011;68323;49.394;8.434;2023-10-09T05:22:06;15.60;;;6.33;;
19816;SDS011;68323;49.394;8.434;2023-10-09T05:24:54;19.80;;;7.23;;
19816;SDS011;68323;49.394;8.434;2023-10-09T05:27:23;20.77;;;6.63;;
19816;SDS011;68323;49.394;8.434;2023-10-09T05:30:09;21.17;;;6.47;;
19816;SDS011;68323;49.394;8.434;2023-10-09T05:32:49;22.83;;;7.27;;
19816;SDS011;68323;49.394;8.434;2023-10-09T05:35:24;17.70;;;7.03;;
19816;SDS011;68323;49.394;8.434;2023-10-09T05:38:10;13.50;;;6.17;;
19816;SDS011;68323;49.394;8.434;2023-10-09T05:40:49;25.20;;;6.37;;
19816;SDS011;68323;49.394;8.434;2023-10-09T05:43:19;21.57;;;6.80;;
19816;SDS011;68323;49.394;8.434;2023-10-09T05:46:03;21.57;;;6.70;;
19816;SDS011;68323;49.394;8.434;2023-10-09T05:48:40;17.07;;;6.80;;
19816;SDS011;68323;49.394;8.434;2023-10-09T05:51:05;20.93;;;7.20;;
19816;SDS011;68323;49.394;8.434;2023-10-09T05:53:33;18.03;;;6.70;;
19816;SDS011;68323;49.394;8.434;2023-10-09T05:56:11;21.87;;;7.10;;
19816;SDS011;68323;49.394;8.434;2023-10-09T05:58:56;22.00;;;7.07;;
19816;SDS011;68323;49.394;8.434;2023-10-09T06:01:40;22.57;;;6.70;;
19816;SDS011;68323;49.394;8.434;2023-10-09T06:04:24;19.50;;;6.73;;
19816;SDS011;68323;49.394;8.434;2023-10-09T06:07:10;21.53;;;6.87;;
19816;SDS011;68323;49.394;8.434;2023-10-09T06:09:39;20.50;;;7.17;;
19816;SDS011;68323;49.394;8.434;2023-10-09T06:12:21;17.27;;;6.13;;
19816;SDS011;68323;49.394;8.434;2023-10-09T06:14:59;18.33;;;6.30;;
19816;SDS011;68323;49.394;8.434;2023-10-09T06:17:44;24.63;;;6.67;;
19816;SDS011;68323;49.394;8.434;2023-10-09T06:20:15;24.33;;;6.67;;
19816;SDS011;68323;49.394;8.434;2023-10-09T06:23:00;27.27;;;6.70;;
19816;SDS011;68323;49.394;8.434;2023-10-09T06:25:40;18.77;;;6.33;;
19816;SDS011;68323;49.394;8.434;2023-10-09T06:28:15;21.73;;;6.50;;
19816;SDS011;68323;49.394;8.434;2023-10-09T06:30:43;25.27;;;7.30;;
19816;SDS011;68323;49.394;8.434;2023-10-09T06:33:12;23.60;;;6.80;;
19816;SDS011;68323;49.394;8.434;2023-10-09T06:35:44;22.20;;;6.70;;
19816;SDS011;68323;49.394;8.434;2023-10-09T06:38:18;24.97;;;7.07;;
19816;SDS011;68323;49.394;8.434;2023-10-09T06:40:48;18.47;;;6.33;;
19816;SDS011;68323;49.394;8.434;2023-10-09T06:43:18;25.87;;;7.63;;
19816;SDS011;68323;49.394;8.434;2023-10-09T06:45:47;23.97;;;6.43;;
19816;SDS011;68323;49.394;8.434;2023-10-09T06:48:31;28.70;;;6.63;;
19816;SDS011;68323;49.394;8.434;2023-10-09T06:51:03;25.83;;;6.93;;
19816;SDS011;68323;49.394;8.434;2023-10-09T06:53:53;24.87;;;7.40;;
19816;SDS011;68323;49.394;8.434;2023-10-09T06:56:20;21.27;;;6.73;;
19816;SDS011;68323;49.394;8.434;2023-10-09T07:01:26;25.33;;;6.97;;
19816;SDS011;68323;49.394;8.434;2023-10-09T07:03:52;26.43;;;6.70;;
19816;SDS011;68323;49.394;8.434;2023-10-09T07:06:40;30.73;;;7.07;;
19816;SDS011;68323;49.394;8.434;2023-10-09T07:09:05;25.77;;;6.63;;
19816;SDS011;68323;49.394;8.434;2023-10-09T07:11:37;21.17;;;7.13;;
19816;SDS011;68323;49.394;8.434;2023-10-09T07:14:11;26.90;;;7.00;;
19816;SDS011;68323;49.394;8.434;2023-10-09T07:16:57;22.63;;;6.23;;
19816;SDS011;68323;49.394;8.434;2023-10-09T07:19:25;28.23;;;7.10;;
19816;SDS011;68323;49.394;8.434;2023-10-09T07:22:03;27.77;;;6.57;;
19816;SDS011;68323;49.394;8.434;2023-10-09T07:24:32;24.10;;;6.37;;
19816;SDS011;68323;49.394;8.434;2023-10-09T07:27:16;23.17;;;6.40;;
19816;SDS011;68323;49.394;8.434;2023-10-09T07:30:05;25.20;;;6.27;;
19816;SDS011;68323;49.394;8.434;2023-10-09T07:32:57;18.63;;;5.80;;
19816;SDS011;68323;49.394;8.434;2023-10-09T07:35:33;22.00;;;6.00;;
19816;SDS011;68323;49.394;8.434;2023-10-09T07:38:08;26.80;;;6.67;;
19816;SDS011;68323;49.394;8.434;2023-10-09T07:41:00;24.60;;;5.90;;
19816;SDS011;68323;49.394;8.434;2023-10-09T07:43:27;28.73;;;5.80;;
19816;SDS011;68323;49.394;8.434;2023-10-09T07:46:01;26.43;;;6.00;;
19816;SDS011;68323;49.394;8.434;2023-10-09T07:48:30;22.80;;;5.60;;
19816;SDS011;68323;49.394;8.434;2023-10-09T07:51:15;27.80;;;5.83;;
19816;SDS011;68323;49.394;8.434;2023-10-09T07:53:41;20.13;;;5.73;;
19816;SDS011;68323;49.394;8.434;2023-10-09T07:56:10;33.03;;;6.73;;
19816;SDS011;68323;49.394;8.434;2023-10-09T07:58:38;22.63;;;6.00;;
19816;SDS011;68323;49.394;8.434;2023-10-09T08:01:11;33.00;;;6.87;;
19816;SDS011;68323;49.394;8.434;2023-10-09T08:03:41;31.30;;;6.10;;
19816;SDS011;68323;49.394;8.434;2023-10-09T08:06:10;24.43;;;6.23;;
19816;SDS011;68323;49.394;8.434;2023-10-09T08:08:55;25.63;;;5.77;;
19816;SDS011;68323;49.394;8.434;2023-10-09T08:11:44;21.37;;;5.37;;
19816;SDS011;68323;49.394;8.434;2023-10-09T08:14:12;31.40;;;6.50;;
19816;SDS011;68323;49.394;8.434;2023-10-09T08:16:49;28.83;;;6.07;;
19816;SDS011;68323;49.394;8.434;2023-10-09T08:19:16;29.47;;;5.87;;
19816;SDS011;68323;49.394;8.434;2023-10-09T08:22:00;23.73;;;5.73;;
19816;SDS011;68323;49.394;8.434;2023-10-09T08:24:44;25.63;;;6.00;;
19816;SDS011;68323;49.394;8.434;2023-10-09T08:27:20;24.77;;;5.83;;
19816;SDS011;68323;49.394;8.434;2023-10-09T08:29:55;24.77;;;6.10;;
19816;SDS011;68323;49.394;8.434;2023-10-09T08:32:38;24.37;;;5.60;;
19816;SDS011;68323;49.394;8.434;2023-10-09T08:35:07;26.13;;;6.27;;
19816;SDS011;68323;49.394;8.434;2023-10-09T08:37:45;26.00;;;5.83;;
19816;SDS011;68323;49.394;8.434;2023-10-09T08:40:13;29.00;;;6.07;;
19816;SDS011;68323;49.394;8.434;2023-10-09T08:42:43;20.77;;;5.10;;
19816;SDS011;68323;49.394;8.434;2023-10-09T08:45:15;22.00;;;5.13;;
19816;SDS011;68323;49.394;8.434;2023-10-09T08:47:47;24.87;;;6.17;;
19816;SDS011;68323;49.394;8.434;2023-10-09T08:50:14;22.50;;;5.50;;
19816;SDS011;68323;49.394;8.434;2023-10-09T08:52:40;26.57;;;5.20;;
19816;SDS011;68323;49.394;8.434;2023-10-09T08:55:05;19.23;;;4.87;;
19816;SDS011;68323;49.394;8.434;2023-10-09T08:57:32;18.87;;;5.03;;
19816;SDS011;68323;49.394;8.434;2023-10-09T08:59:58;20.73;;;5.17;;
19816;SDS011;68323;49.394;8.434;2023-10-09T09:02:24;22.83;;;5.03;;
19816;SDS011;68323;49.394;8.434;2023-10-09T09:04:49;18.23;;;5.20;;
19816;SDS011;68323;49.394;8.434;2023-10-09T09:07:24;14.00;;;4.53;;
19816;SDS011;68323;49.394;8.434;2023-10-09T09:09:58;20.63;;;4.85;;
19816;SDS011;68323;49.394;8.434;2023-10-09T09:12:29;17.05;;;4.70;;
19816;SDS011;68323;49.394;8.434;2023-10-09T09:15:02;22.02;;;4.93;;
19816;SDS011;68323;49.394;8.434;2023-10-09T09:17:31;17.95;;;4.70;;
19816;SDS011;68323;49.394;8.434;2023-10-09T09:19:58;14.77;;;4.72;;
19816;SDS011;68323;49.394;8.434;2023-10-09T09:22:23;17.05;;;4.80;;
19816;SDS011;68323;49.394;8.434;2023-10-09T09:24:58;19.55;;;4.65;;
19816;SDS011;68323;49.394;8.434;2023-10-09T09:27:43;15.73;;;4.80;;
19816;SDS011;68323;49.394;8.434;2023-10-09T09:30:29;18.63;;;4.45;;
19816;SDS011;68323;49.394;8.434;2023-10-09T09:32:58;23.17;;;5.32;;
19816;SDS011;68323;49.394;8.434;2023-10-09T09:35:55;18.63;;;4.65;;
19816;SDS011;68323;49.394;8.434;2023-10-09T09:38:22;13.45;;;4.78;;
19816;SDS011;68323;49.394;8.434;2023-10-09T09:40:50;16.08;;;4.75;;
19816;SDS011;68323;49.394;8.434;2023-10-09T09:43:19;13.68;;;4.65;;
19816;SDS011;68323;49.394;8.434;2023-10-09T09:45:47;16.08;;;4.50;;
19816;SDS011;68323;49.394;8.434;2023-10-09T09:48:16;18.17;;;4.85;;
19816;SDS011;68323;49.394;8.434;2023-10-09T09:50:44;20.58;;;4.70;;
19816;SDS011;68323;49.394;8.434;2023-10-09T09:53:14;15.98;;;4.72;;
19816;SDS011;68323;49.394;8.434;2023-10-09T09:56:01;14.00;;;5.50;;
19816;SDS011;68323;49.394;8.434;2023-10-09T09:58:29;19.08;;;5.35;;
19816;SDS011;68323;49.394;8.434;2023-10-09T10:01:08;22.20;;;4.82;;
19816;SDS011;68323;49.394;8.434;2023-10-09T10:03:49;15.40;;;5.35;;
19816;SDS011;68323;49.394;8.434;2023-10-09T10:06:26;14.98;;;4.30;;
19816;SDS011;68323;49.394;8.434;2023-10-09T10:08:54;18.95;;;6.10;;
19816;SDS011;68323;49.394;8.434;2023-10-09T10:14:09;18.83;;;5.10;;
19816;SDS011;68323;49.394;8.434;2023-10-09T10:19:24;17.77;;;4.45;;
19816;SDS011;68323;49.394;8.434;2023-10-09T10:22:30;17.17;;;4.68;;
19816;SDS011;68323;49.394;8.434;2023-10-09T10:24:57;17.17;;;4.25;;
19816;SDS011;68323;49.394;8.434;2023-10-09T10:27:28;17.50;;;5.00;;
19816;SDS011;68323;49.394;8.434;2023-10-09T10:35:16;16.27;;;4.28;;
19816;SDS011;68323;49.394;8.434;2023-10-09T10:37:45;19.45;;;5.30;;
19816;SDS011;68323;49.394;8.434;2023-10-09T10:40:25;17.58;;;6.32;;
19816;SDS011;68323;49.394;8.434;2023-10-09T10:43:05;17.70;;;6.03;;
19816;SDS011;68323;49.394;8.434;2023-10-09T10:45:37;18.27;;;5.30;;
19816;SDS011;68323;49.394;8.434;2023-10-09T10:48:08;21.00;;;5.07;;
19816;SDS011;68323;49.394;8.434;2023-10-09T10:50:47;12.75;;;4.90;;
19816;SDS011;68323;49.394;8.434;2023-10-09T10:53:14;21.05;;;5.05;;
19816;SDS011;68323;49.394;8.434;2023-10-09T10:55:59;17.92;;;5.30;;
19816;SDS011;68323;49.394;8.434;2023-10-09T10:58:37;13.85;;;4.53;;
19816;SDS011;68323;49.394;8.434;2023-10-09T11:01:03;12.05;;;4.60;;
19816;SDS011;68323;49.394;8.434;2023-10-09T11:03:38;12.68;;;4.50;;
19816;SDS011;68323;49.394;8.434;2023-10-09T11:06:27;16.33;;;4.90;;
19816;SDS011;68323;49.394;8.434;2023-10-09T11:09:06;12.63;;;4.53;;
19816;SDS011;68323;49.394;8.434;2023-10-09T11:11:46;17.98;;;4.75;;
19816;SDS011;68323;49.394;8.434;2023-10-09T11:14:14;14.85;;;4.78;;
19816;SDS011;68323;49.394;8.434;2023-10-09T11:16:40;21.35;;;5.35;;
19816;SDS011;68323;49.394;8.434;2023-10-09T11:19:12;14.43;;;4.45;;
19816;SDS011;68323;49.394;8.434;2023-10-09T11:21:56;15.25;;;4.35;;
19816;SDS011;68323;49.394;8.434;2023-10-09T11:24:25;16.33;;;4.47;;
19816;SDS011;68323;49.394;8.434;2023-10-09T11:26:59;13.13;;;4.18;;
19816;SDS011;68323;49.394;8.434;2023-10-09T11:29:32;18.17;;;4.82;;
19816;SDS011;68323;49.394;8.434;2023-10-09T11:32:08;15.05;;;4.38;;
19816;SDS011;68323;49.394;8.434;2023-10-09T11:34:44;20.33;;;4.30;;
19816;SDS011;68323;49.394;8.434;2023-10-09T11:37:19;12.88;;;4.78;;
19816;SDS011;68323;49.394;8.434;2023-10-09T11:39:55;13.38;;;4.65;;
19816;SDS011;68323;49.394;8.434;2023-10-09T11:42:28;14.52;;;4.20;;
19816;SDS011;68323;49.394;8.434;2023-10-09T11:45:00;16.08;;;4.40;;
19816;SDS011;68323;49.394;8.434;2023-10-09T11:47:44;14.18;;;4.60;;
19816;SDS011;68323;49.394;8.434;2023-10-09T11:53:09;9.93;;;4.32;;
19816;SDS011;68323;49.394;8.434;2023-10-09T11:55:58;11.95;;;4.47;;
19816;SDS011;68323;49.394;8.434;2023-10-09T11:58:24;10.65;;;4.80;;
19816;SDS011;68323;49.394;8.434;2023-10-09T12:00:50;13.60;;;4.10;;
19816;SDS011;68323;49.394;8.434;2023-10-09T12:03:18;15.38;;;4.30;;
19816;SDS011;68323;49.394;8.434;2023-10-09T12:05:48;19.80;;;4.43;;
19816;SDS011;68323;49.394;8.434;2023-10-09T12:08:13;11.77;;;4.35;;
19816;SDS011;68323;49.394;8.434;2023-10-09T12:10:41;17.65;;;4.63;;
19816;SDS011;68323;49.394;8.434;2023-10-09T12:13:07;12.98;;;4.35;;
19816;SDS011;68323;49.394;8.434;2023-10-09T12:15:33;13.55;;;4.22;;
19816;SDS011;68323;49.394;8.434;2023-10-09T12:18:05;11.43;;;4.97;;
19816;SDS011;68323;49.394;8.434;2023-10-09T12:20:39;12.95;;;4.57;;
19816;SDS011;68323;49.394;8.434;2023-10-09T12:23:15;16.45;;;5.15;;
19816;SDS011;68323;49.394;8.434;2023-10-09T12:25:40;12.35;;;4.78;;
19816;SDS011;68323;49.394;8.434;2023-10-09T12:28:09;19.08;;;5.10;;
19816;SDS011;68323;49.394;8.434;2023-10-09T12:30:37;15.18;;;5.05;;
19816;SDS011;68323;49.394;8.434;2023-10-09T12:33:04;12.90;;;4.80;;
19816;SDS011;68323;49.394;8.434;2023-10-09T12:35:35;17.08;;;4.95;;
19816;SDS011;68323;49.394;8.434;2023-10-09T12:38:02;11.60;;;4.70;;
19816;SDS011;68323;49.394;8.434;2023-10-09T12:40:28;11.38;;;4.20;;
19816;SDS011;68323;49.394;8.434;2023-10-09T12:42:57;10.68;;;4.43;;
19816;SDS011;68323;49.394;8.434;2023-10-09T12:45:25;9.73;;;4.03;;
19816;SDS011;68323;49.394;8.434;2023-10-09T12:47:52;13.13;;;4.68;;
19816;SDS011;68323;49.394;8.434;2023-10-09T12:50:19;9.20;;;4.45;;
19816;SDS011;68323;49.394;8.434;2023-10-09T12:52:52;13.18;;;4.75;;
19816;SDS011;68323;49.394;8.434;2023-10-09T12:55:26;13.38;;;4.55;;
19816;SDS011;68323;49.394;8.434;2023-10-09T12:57:59;10.57;;;4.82;;
19816;SDS011;68323;49.394;8.434;2023-10-09T13:00:26;9.57;;;4.18;;
19816;SDS011;68323;49.394;8.434;2023-10-09T13:02:52;12.20;;;4.70;;
19816;SDS011;68323;49.394;8.434;2023-10-09T13:05:18;17.92;;;4.88;;
19816;SDS011;68323;49.394;8.434;2023-10-09T13:07:52;8.85;;;4.25;;
19816;SDS011;68323;49.394;8.434;2023-10-09T13:10:20;10.80;;;4.75;;
19816;SDS011;68323;49.394;8.434;2023-10-09T13:12:48;9.82;;;4.43;;
19816;SDS011;68323;49.394;8.434;2023-10-09T13:15:20;13.85;;;4.75;;
19816;SDS011;68323;49.394;8.434;2023-10-09T13:17:46;10.18;;;4.50;;
19816;SDS011;68323;49.394;8.434;2023-10-09T13:20:12;10.23;;;4.60;;
19816;SDS011;68323;49.394;8.434;2023-10-09T13:22:44;12.88;;;4.30;;
19816;SDS011;68323;49.394;8.434;2023-10-09T13:25:12;11.95;;;4.63;;
19816;SDS011;68323;49.394;8.434;2023-10-09T13:27:41;15.13;;;4.53;;
19816;SDS011;68323;49.394;8.434;2023-10-09T13:30:15;8.20;;;3.92;;
19816;SDS011;68323;49.394;8.434;2023-10-09T13:32:49;9.82;;;4.28;;
19816;SDS011;68323;49.394;8.434;2023-10-09T13:35:16;15.23;;;4.70;;
19816;SDS011;68323;49.394;8.434;2023-10-09T13:37:43;8.90;;;4.55;;
19816;SDS011;68323;49.394;8.434;2023-10-09T13:40:09;12.98;;;4.20;;
19816;SDS011;68323;49.394;8.434;2023-10-09T13:42:36;16.35;;;5.15;;
19816;SDS011;68323;49.394;8.434;2023-10-09T13:45:02;12.10;;;4.80;;
19816;SDS011;68323;49.394;8.434;2023-10-09T13:47:40;8.93;;;4.43;;
19816;SDS011;68323;49.394;8.434;2023-10-09T13:50:09;14.40;;;4.88;;
19816;SDS011;68323;49.394;8.434;2023-10-09T13:52:35;11.32;;;4.82;;
19816;SDS011;68323;49.394;8.434;2023-10-09T13:55:04;10.93;;;4.43;;
19816;SDS011;68323;49.394;8.434;2023-10-09T13:57:40;9.63;;;4.53;;
19816;SDS011;68323;49.394;8.434;2023-10-09T14:00:08;12.70;;;4.95;;
19816;SDS011;68323;49.394;8.434;2023-10-09T14:02:36;14.55;;;4.82;;
19816;SDS011;68323;49.394;8.434;2023-10-09T14:05:03;15.18;;;4.78;;
19816;SDS011;68323;49.394;8.434;2023-10-09T14:07:29;9.75;;;4.32;;
19816;SDS011;68323;49.394;8.434;2023-10-09T14:09:55;9.80;;;4.70;;
19816;SDS011;68323;49.394;8.434;2023-10-09T14:12:21;11.65;;;4.43;;
19816;SDS011;68323;49.394;8.434;2023-10-09T14:14:47;11.00;;;4.82;;
19816;SDS011;68323;49.394;8.434;2023-10-09T14:17:13;25.25;;;6.10;;
19816;SDS011;68323;49.394;8.434;2023-10-09T14:22:06;10.63;;;4.53;;
19816;SDS011;68323;49.394;8.434;2023-10-09T14:24:32;11.57;;;4.68;;
19816;SDS011;68323;49.394;8.434;2023-10-09T14:26:59;10.05;;;5.05;;
19816;SDS011;68323;49.394;8.434;2023-10-09T14:29:29;9.73;;;4.75;;
19816;SDS011;68323;49.394;8.434;2023-10-09T14:31:56;18.98;;;4.80;;
19816;SDS011;68323;49.394;8.434;2023-10-09T14:34:25;9.73;;;5.00;;
19816;SDS011;68323;49.394;8.434;2023-10-09T14:37:00;12.10;;;5.05;;
19816;SDS011;68323;49.394;8.434;2023-10-09T14:39:27;13.63;;;5.03;;
19816;SDS011;68323;49.394;8.434;2023-10-09T14:41:53;11.23;;;4.72;;
19816;SDS011;68323;49.394;8.434;2023-10-09T14:44:20;8.70;;;4.22;;
19816;SDS011;68323;49.394;8.434;2023-10-09T14:46:46;10.43;;;4.65;;
19816;SDS011;68323;49.394;8.434;2023-10-09T14:49:11;10.65;;;4.95;;
19816;SDS011;68323;49.394;8.434;2023-10-09T14:51:39;10.05;;;4.95;;
19816;SDS011;68323;49.394;8.434;2023-10-09T14:54:04;11.45;;;5.32;;
19816;SDS011;68323;49.394;8.434;2023-10-09T14:56:32;10.63;;;5.00;;
19816;SDS011;68323;49.394;8.434;2023-10-09T14:59:01;10.15;;;4.80;;
19816;SDS011;68323;49.394;8.434;2023-10-09T15:01:28;13.95;;;5.10;;
19816;SDS011;68323;49.394;8.434;2023-10-09T15:03:57;9.73;;;4.75;;
19816;SDS011;68323;49.394;8.434;2023-10-09T15:06:24;10.13;;;4.97;;
19816;SDS011;68323;49.394;8.434;2023-10-09T15:08:55;12.15;;;4.97;;
19816;SDS011;68323;49.394;8.434;2023-10-09T15:11:25;10.13;;;5.18;;
19816;SDS011;68323;49.394;8.434;2023-10-09T15:13:53;9.90;;;5.20;;
19816;SDS011;68323;49.394;8.434;2023-10-09T15:16:21;11.85;;;5.28;;
19816;SDS011;68323;49.394;8.434;2023-10-09T15:18:47;11.68;;;5.38;;
19816;SDS011;68323;49.394;8.434;2023-10-09T15:21:17;10.55;;;4.97;;
19816;SDS011;68323;49.394;8.434;2023-10-09T15:23:52;11.13;;;5.20;;
19816;SDS011;68323;49.394;8.434;2023-10-09T15:26:19;11.95;;;5.50;;